createdAt,value
2023-05-09T00:00:39.615Z,13.82
2023-05-09T00:03:07.925Z,13.52
2023-05-09T00:05:36.292Z,13.10
2023-05-09T00:08:04.688Z,13.40
2023-05-09T00:10:34.365Z,13.25
2023-05-09T00:13:02.722Z,13.90
2023-05-09T00:15:31.904Z,14.65
2023-05-09T00:18:00.237Z,13.40
2023-05-09T00:20:28.870Z,13.23
2023-05-09T00:22:57.113Z,13.50
2023-05-09T00:25:25.571Z,14.20
2023-05-09T00:27:55.289Z,13.65
2023-05-09T00:30:23.747Z,14.38
2023-05-09T00:32:52.114Z,13.75
2023-05-09T00:35:20.429Z,14.52
2023-05-09T00:37:49.307Z,14.70
2023-05-09T00:40:17.882Z,15.77
2023-05-09T00:42:46.483Z,14.95
2023-05-09T00:45:16.201Z,14.65
2023-05-09T00:47:44.742Z,14.55
2023-05-09T00:50:13.648Z,15.75
2023-05-09T00:52:41.971Z,14.90
2023-05-09T00:55:10.633Z,15.63
2023-05-09T00:57:38.966Z,15.80
2023-05-09T01:00:12.798Z,14.85
2023-05-09T01:02:43.022Z,15.35
2023-05-09T01:05:11.578Z,15.43
2023-05-09T01:07:43.054Z,16.08
2023-05-09T01:10:16.843Z,15.27
2023-05-09T01:12:49.353Z,16.05
2023-05-09T01:15:21.489Z,15.95
2023-05-09T01:17:55.414Z,16.20
2023-05-09T01:20:28.590Z,16.00
2023-05-09T01:23:02.363Z,15.60
2023-05-09T01:25:46.224Z,15.57
2023-05-09T01:28:16.088Z,15.15
2023-05-09T01:30:46.947Z,16.02
2023-05-09T01:33:18.232Z,16.00
2023-05-09T01:35:50.471Z,15.60
2023-05-09T01:38:20.394Z,16.65
2023-05-09T01:40:50.783Z,15.45
2023-05-09T01:43:21.098Z,15.98
2023-05-09T01:45:51.581Z,14.98
2023-05-09T01:48:20.920Z,15.13
2023-05-09T01:50:49.462Z,15.02
2023-05-09T01:53:18.948Z,15.52
2023-05-09T01:55:47.845Z,15.20
2023-05-09T01:58:16.557Z,15.30
2023-05-09T02:00:46.964Z,15.40
2023-05-09T02:03:16.773Z,15.02
2023-05-09T02:05:46.082Z,14.20
2023-05-09T02:08:15.659Z,15.65
2023-05-09T02:10:44.256Z,14.88
2023-05-09T02:13:12.617Z,14.88
2023-05-09T02:15:41.462Z,15.23
2023-05-09T02:18:09.780Z,14.40
2023-05-09T02:20:39.504Z,14.80
2023-05-09T02:23:07.922Z,15.10
2023-05-09T02:25:36.319Z,14.80
2023-05-09T02:28:04.781Z,14.77
2023-05-09T02:30:35.227Z,15.73
2023-05-09T02:33:05.101Z,13.77
2023-05-09T02:35:33.637Z,14.55
2023-05-09T02:38:03.699Z,15.20
2023-05-09T02:40:35.340Z,15.00
2023-05-09T02:43:04.057Z,14.88
2023-05-09T02:45:32.984Z,16.05
2023-05-09T02:48:01.542Z,14.95
2023-05-09T02:50:29.929Z,15.18
2023-05-09T02:52:58.578Z,15.85
2023-05-09T02:55:28.368Z,16.05
2023-05-09T02:58:09.336Z,15.40
2023-05-09T03:00:41.521Z,14.80
2023-05-09T03:03:10.698Z,14.93
2023-05-09T03:05:39.208Z,14.80
2023-05-09T03:08:07.540Z,15.10
2023-05-09T03:10:37.750Z,15.50
2023-05-09T03:13:06.142Z,14.82
2023-05-09T03:15:34.524Z,14.82
2023-05-09T03:18:03.235Z,14.77
2023-05-09T03:20:31.534Z,15.93
2023-05-09T03:23:00.611Z,15.48
2023-05-09T03:25:28.991Z,14.65
2023-05-09T03:27:58.613Z,15.00
2023-05-09T03:30:27.403Z,14.90
2023-05-09T03:32:57.158Z,15.48
2023-05-09T03:35:25.700Z,15.38
2023-05-09T03:37:55.406Z,15.82
2023-05-09T03:40:23.769Z,16.35
2023-05-09T03:43:01.891Z,16.17
2023-05-09T03:45:30.390Z,16.83
2023-05-09T03:47:59.187Z,15.25
2023-05-09T03:50:27.662Z,16.58
2023-05-09T03:52:58.753Z,16.92
2023-05-09T03:55:27.535Z,17.13
2023-05-09T03:57:55.884Z,16.30
2023-05-09T04:00:27.271Z,17.10
2023-05-09T04:03:05.021Z,15.88
2023-05-09T04:05:38.954Z,16.25
2023-05-09T04:08:09.693Z,17.50
2023-05-09T04:10:38.052Z,15.90
2023-05-09T04:13:06.589Z,16.80
2023-05-09T04:15:37.371Z,15.93
2023-05-09T04:18:06.088Z,16.00
2023-05-09T04:20:34.499Z,15.25
2023-05-09T04:23:03.305Z,15.55
2023-05-09T04:25:31.827Z,17.10
2023-05-09T04:28:00.242Z,17.08
2023-05-09T04:30:29.648Z,16.10
2023-05-09T04:33:00.329Z,16.42
2023-05-09T04:35:30.359Z,16.08
2023-05-09T04:37:58.958Z,15.57
2023-05-09T04:40:28.390Z,15.60
2023-05-09T04:43:00.285Z,15.60
2023-05-09T04:45:31.816Z,14.13
2023-05-09T04:48:04.048Z,15.77
2023-05-09T04:50:32.745Z,14.82
2023-05-09T04:53:01.218Z,15.05
2023-05-09T04:55:29.687Z,15.85
2023-05-09T04:57:58.375Z,14.82
2023-05-09T05:00:26.915Z,14.65
2023-05-09T05:02:55.438Z,15.32
2023-05-09T05:05:27.912Z,14.75
2023-05-09T05:07:56.562Z,15.73
2023-05-09T05:10:30.424Z,16.00
2023-05-09T05:13:07.308Z,14.25
2023-05-09T05:15:37.725Z,13.95
2023-05-09T05:18:06.761Z,14.65
2023-05-09T05:20:37.940Z,14.95
2023-05-09T05:23:06.258Z,15.35
2023-05-09T05:25:34.556Z,14.63
2023-05-09T05:28:03.658Z,15.27
2023-05-09T05:30:34.164Z,14.80
2023-05-09T05:33:03.653Z,14.18
2023-05-09T05:35:32.519Z,14.88
2023-05-09T05:38:02.649Z,15.10
2023-05-09T05:40:31.052Z,14.20
2023-05-09T05:43:02.691Z,13.45
2023-05-09T05:45:33.061Z,14.55
2023-05-09T05:48:04.115Z,13.48
2023-05-09T05:50:34.409Z,13.23
2023-05-09T05:53:04.365Z,12.25
2023-05-09T05:55:32.719Z,13.23
2023-05-09T05:58:01.690Z,14.38
2023-05-09T06:00:30.126Z,13.73
2023-05-09T06:03:04.341Z,14.10
2023-05-09T06:05:52.844Z,13.48
2023-05-09T06:08:22.525Z,14.02
2023-05-09T06:10:50.831Z,12.93
2023-05-09T06:13:19.149Z,13.80
2023-05-09T06:15:52.581Z,13.20
2023-05-09T06:18:20.943Z,12.77
2023-05-09T06:20:49.306Z,13.20
2023-05-09T06:23:21.976Z,12.65
2023-05-09T06:25:51.705Z,13.77
2023-05-09T06:28:20.017Z,12.48
2023-05-09T06:30:48.288Z,13.50
2023-05-09T06:33:16.561Z,12.18
2023-05-09T06:35:45.044Z,12.57
2023-05-09T06:38:13.320Z,12.43
2023-05-09T06:40:41.820Z,13.20
2023-05-09T06:43:11.544Z,12.45
2023-05-09T06:45:39.831Z,12.80
2023-05-09T06:48:08.560Z,12.35
2023-05-09T06:50:36.906Z,12.18
2023-05-09T06:53:05.318Z,14.02
2023-05-09T06:55:33.701Z,12.63
2023-05-09T06:58:02.030Z,11.50
2023-05-09T07:00:31.815Z,12.57
2023-05-09T07:03:00.220Z,11.68
2023-05-09T07:05:28.644Z,11.68
2023-05-09T07:07:56.972Z,12.90
2023-05-09T07:10:25.358Z,11.15
2023-05-09T07:12:53.642Z,9.57
2023-05-09T07:15:36.685Z,11.20
2023-05-09T07:18:10.080Z,12.18
2023-05-09T07:20:38.585Z,11.82
2023-05-09T07:23:07.074Z,12.38
2023-05-09T07:25:35.510Z,9.45
2023-05-09T07:28:03.845Z,12.10
2023-05-09T07:30:32.243Z,10.43
2023-05-09T07:33:01.460Z,11.02
2023-05-09T07:35:31.217Z,9.80
2023-05-09T07:37:59.553Z,9.40
2023-05-09T07:40:27.828Z,10.55
2023-05-09T07:42:56.712Z,11.82
2023-05-09T07:45:25.044Z,12.50
2023-05-09T07:47:53.409Z,12.00
2023-05-09T07:50:23.090Z,10.70
2023-05-09T07:52:52.943Z,10.55
2023-05-09T07:55:21.343Z,9.45
2023-05-09T07:57:49.677Z,11.63
2023-05-09T08:00:23.260Z,9.15
2023-05-09T08:02:52.137Z,10.98
2023-05-09T08:05:20.815Z,10.95
2023-05-09T08:07:49.193Z,11.77
2023-05-09T08:10:18.801Z,12.35
2023-05-09T08:12:47.086Z,11.75
2023-05-09T08:15:15.699Z,11.75
2023-05-09T08:17:44.332Z,10.60
2023-05-09T08:20:13.716Z,11.52
2023-05-09T08:22:42.054Z,12.45
2023-05-09T08:25:10.465Z,11.75
2023-05-09T08:27:40.154Z,12.63
2023-05-09T08:30:09.096Z,9.65
2023-05-09T08:32:37.548Z,11.05
2023-05-09T08:35:06.070Z,13.38
2023-05-09T08:37:34.344Z,12.43
2023-05-09T08:40:04.132Z,12.02
2023-05-09T08:42:33.567Z,11.13
2023-05-09T08:45:04.062Z,11.05
2023-05-09T08:47:36.129Z,11.27
2023-05-09T08:50:04.553Z,11.65
2023-05-09T08:52:33.733Z,12.43
2023-05-09T08:55:02.296Z,12.07
2023-05-09T08:57:30.774Z,10.30
2023-05-09T08:59:59.520Z,10.73
2023-05-09T09:02:29.266Z,10.75
2023-05-09T09:05:04.158Z,10.45
2023-05-09T09:07:35.899Z,11.55
2023-05-09T09:10:07.072Z,10.68
2023-05-09T09:12:37.091Z,10.48
2023-05-09T09:15:06.502Z,10.07
2023-05-09T09:17:36.919Z,10.68
2023-05-09T09:20:08.885Z,10.57
2023-05-09T09:22:38.426Z,9.98
2023-05-09T09:25:06.978Z,10.65
2023-05-09T09:27:35.487Z,10.07
2023-05-09T09:30:22.416Z,10.75
2023-05-09T09:32:52.205Z,9.57
2023-05-09T09:35:21.712Z,11.43
2023-05-09T09:37:49.952Z,11.07
2023-05-09T09:40:18.327Z,9.77
2023-05-09T09:42:47.000Z,10.27
2023-05-09T09:45:16.047Z,10.82
2023-05-09T09:47:44.831Z,11.52
2023-05-09T09:50:15.961Z,10.55
2023-05-09T09:52:45.232Z,11.05
2023-05-09T09:55:14.415Z,10.05
2023-05-09T09:57:45.523Z,10.10
2023-05-09T10:00:14.735Z,10.35
2023-05-09T10:02:50.485Z,10.32
2023-05-09T10:05:28.561Z,10.25
2023-05-09T10:07:58.899Z,10.20
2023-05-09T10:10:28.246Z,11.38
2023-05-09T10:12:58.709Z,10.68
2023-05-09T10:15:28.730Z,10.05
2023-05-09T10:17:59.390Z,10.32
2023-05-09T10:20:29.691Z,10.43
2023-05-09T10:23:03.492Z,11.15
2023-05-09T10:25:34.970Z,10.40
2023-05-09T10:28:05.346Z,10.27
2023-05-09T10:30:37.102Z,9.85
2023-05-09T10:33:06.313Z,9.57
2023-05-09T10:35:38.269Z,8.77
2023-05-09T10:38:09.864Z,8.93
2023-05-09T10:40:38.253Z,9.30
2023-05-09T10:43:07.101Z,9.02
2023-05-09T10:45:35.893Z,9.40
2023-05-09T10:48:04.967Z,9.52
2023-05-09T10:50:33.343Z,10.57
2023-05-09T10:53:14.118Z,10.70
2023-05-09T10:55:50.775Z,8.93
2023-05-09T10:58:23.553Z,9.48
2023-05-09T11:00:55.161Z,10.45
2023-05-09T11:03:28.708Z,10.63
2023-05-09T11:05:58.971Z,10.90
2023-05-09T11:08:29.014Z,10.75
2023-05-09T11:10:58.098Z,10.45
2023-05-09T11:13:27.327Z,11.77
2023-05-09T11:16:06.149Z,10.63
2023-05-09T11:18:34.654Z,11.38
2023-05-09T11:21:09.466Z,11.98
2023-05-09T11:23:39.372Z,10.60
2023-05-09T11:26:08.381Z,10.50
2023-05-09T11:28:37.925Z,10.70
2023-05-09T11:31:12.850Z,11.50
2023-05-09T11:33:42.385Z,12.10
2023-05-09T11:36:18.350Z,9.88
2023-05-09T11:38:48.637Z,11.07
2023-05-09T11:41:17.276Z,10.77
2023-05-09T11:43:45.673Z,11.80
2023-05-09T11:46:14.070Z,10.60
2023-05-09T11:48:42.839Z,10.43
2023-05-09T11:51:18.019Z,9.07
2023-05-09T11:53:47.948Z,10.40
2023-05-09T11:56:16.338Z,10.70
2023-05-09T11:58:44.760Z,10.73
2023-05-09T12:01:13.596Z,11.13
2023-05-09T12:03:44.238Z,9.77
2023-05-09T12:06:15.663Z,10.52
2023-05-09T12:08:43.932Z,9.63
2023-05-09T12:11:18.391Z,8.65
2023-05-09T12:13:52.673Z,8.48
2023-05-09T12:16:23.458Z,9.27
2023-05-09T12:18:55.258Z,8.63
2023-05-09T12:21:23.833Z,8.38
2023-05-09T12:23:53.339Z,8.00
2023-05-09T12:26:24.444Z,8.43
2023-05-09T12:28:53.559Z,7.78
2023-05-09T12:31:22.184Z,8.40
2023-05-09T12:33:50.620Z,7.70
2023-05-09T12:36:18.974Z,7.78
2023-05-09T12:38:55.171Z,7.65
2023-05-09T12:43:56.380Z,8.15
2023-05-09T12:46:24.989Z,6.97
2023-05-09T12:48:53.434Z,6.55
2023-05-09T12:51:22.179Z,7.13
2023-05-09T12:53:50.710Z,6.70
2023-05-09T12:56:20.034Z,7.00
2023-05-09T12:58:53.149Z,7.60
2023-05-09T13:01:30.522Z,6.85
2023-05-09T13:04:04.732Z,6.63
2023-05-09T13:06:34.758Z,6.30
2023-05-09T13:09:07.969Z,6.40
2023-05-09T13:11:38.095Z,8.70
2023-05-09T13:14:08.095Z,8.40
2023-05-09T13:16:36.611Z,8.75
2023-05-09T13:19:06.855Z,9.85
2023-05-09T13:21:35.947Z,9.38
2023-05-09T13:24:04.270Z,10.90
2023-05-09T13:26:32.851Z,10.60
2023-05-09T13:29:01.174Z,10.40
2023-05-09T13:31:31.011Z,11.10
2023-05-09T13:33:59.483Z,9.65
2023-05-09T13:36:27.789Z,10.25
2023-05-09T13:38:56.194Z,10.40
2023-05-09T13:41:24.520Z,10.13
2023-05-09T13:43:52.935Z,9.88
2023-05-09T13:46:21.275Z,9.18
2023-05-09T13:48:50.950Z,9.35
2023-05-09T13:51:19.335Z,9.05
2023-05-09T13:53:47.831Z,8.93
2023-05-09T13:56:16.112Z,9.43
2023-05-09T13:58:44.421Z,9.98
2023-05-09T14:01:17.643Z,9.38
2023-05-09T14:03:49.053Z,9.23
2023-05-09T14:06:20.309Z,10.55
2023-05-09T14:08:52.038Z,9.93
2023-05-09T14:11:22.009Z,9.70
2023-05-09T14:13:50.371Z,9.93
2023-05-09T14:16:18.646Z,10.50
2023-05-09T14:18:47.024Z,10.07
2023-05-09T14:21:15.388Z,10.38
2023-05-09T14:23:44.954Z,9.95
2023-05-09T14:26:13.614Z,10.48
2023-05-09T14:28:41.906Z,8.82
2023-05-09T14:31:10.247Z,10.27
2023-05-09T14:33:39.744Z,9.93
2023-05-09T14:36:08.080Z,11.98
2023-05-09T14:38:36.849Z,10.43
2023-05-09T14:41:07.229Z,10.25
2023-05-09T14:43:35.662Z,10.30
2023-05-09T14:46:03.943Z,9.95
2023-05-09T14:48:32.235Z,9.60
2023-05-09T14:51:00.577Z,9.10
2023-05-09T14:53:29.297Z,8.77
2023-05-09T14:55:57.649Z,10.27
2023-05-09T14:58:27.374Z,9.57
2023-05-09T15:00:59.344Z,10.43
2023-05-09T15:03:33.366Z,9.98
2023-05-09T15:06:09.669Z,8.35
2023-05-09T15:08:41.182Z,9.13
2023-05-09T15:11:09.598Z,8.88
2023-05-09T15:13:39.257Z,10.18
2023-05-09T15:16:08.689Z,10.43
2023-05-09T15:18:37.092Z,9.82
2023-05-09T15:21:05.663Z,9.98
2023-05-09T15:23:34.034Z,8.90
2023-05-09T15:26:02.368Z,9.57
2023-05-09T15:28:30.708Z,9.43
2023-05-09T15:31:00.774Z,10.50
2023-05-09T15:33:29.315Z,10.35
2023-05-09T15:35:58.883Z,11.15
2023-05-09T15:38:27.273Z,11.48
2023-05-09T15:40:55.720Z,11.75
2023-05-09T15:43:24.058Z,11.77
2023-05-09T15:45:52.408Z,11.52
2023-05-09T15:48:23.286Z,11.82
2023-05-09T15:50:51.628Z,12.25
2023-05-09T15:53:19.901Z,11.27
2023-05-09T15:55:48.264Z,10.45
2023-05-09T15:58:16.563Z,11.20
2023-05-09T16:00:53.149Z,12.48
2023-05-09T16:03:30.077Z,12.85
2023-05-09T16:06:04.580Z,12.75
2023-05-09T16:08:35.179Z,12.82
2023-05-09T16:11:04.564Z,11.65
2023-05-09T16:13:35.631Z,13.10
2023-05-09T16:16:04.477Z,14.25
2023-05-09T16:18:34.088Z,12.98
2023-05-09T16:21:02.355Z,13.68
2023-05-09T16:23:30.752Z,13.18
2023-05-09T16:25:59.142Z,13.40
2023-05-09T16:28:28.005Z,13.10
2023-05-09T16:30:56.315Z,14.40
2023-05-09T16:33:24.601Z,13.70
2023-05-09T16:35:54.388Z,14.20
2023-05-09T16:38:22.725Z,14.48
2023-05-09T16:40:51.279Z,13.30
2023-05-09T16:43:20.558Z,13.85
2023-05-09T16:45:49.052Z,14.35
2023-05-09T16:48:17.842Z,15.18
2023-05-09T16:50:47.750Z,14.10
2023-05-09T16:53:19.557Z,14.40
2023-05-09T16:55:48.010Z,14.63
2023-05-09T16:58:16.317Z,14.40
2023-05-09T17:00:47.237Z,13.50
2023-05-09T17:03:17.446Z,16.55
2023-05-09T17:05:50.137Z,15.20
2023-05-09T17:08:26.177Z,15.88
2023-05-09T17:11:00.516Z,19.95
2023-05-09T17:13:29.494Z,25.88
2023-05-09T17:16:00.183Z,26.90
2023-05-09T17:18:37.680Z,24.50
2023-05-09T17:21:06.524Z,20.17
2023-05-09T17:23:36.197Z,17.55
2023-05-09T17:26:04.736Z,16.02
2023-05-09T17:28:33.114Z,15.30
2023-05-09T17:31:03.249Z,16.08
2023-05-09T17:33:31.583Z,16.42
2023-05-09T17:36:00.683Z,15.40
2023-05-09T17:38:30.042Z,15.27
2023-05-09T17:40:59.715Z,16.60
2023-05-09T17:43:28.366Z,16.50
2023-05-09T17:45:56.740Z,14.40
2023-05-09T17:48:25.071Z,15.35
2023-05-09T17:50:53.380Z,15.55
2023-05-09T17:53:23.633Z,12.43
2023-05-09T17:55:52.239Z,12.45
2023-05-09T17:58:23.699Z,11.98
2023-05-09T18:00:54.974Z,11.80
2023-05-09T18:03:23.382Z,11.43
2023-05-09T18:05:51.909Z,11.20
2023-05-09T18:08:20.224Z,11.63
2023-05-09T18:10:48.703Z,10.93
2023-05-09T18:13:17.667Z,12.10
2023-05-09T18:15:47.453Z,10.95
2023-05-09T18:18:15.901Z,10.27
2023-05-09T18:20:46.162Z,10.25
2023-05-09T18:23:15.912Z,9.73
2023-05-09T18:25:44.288Z,9.20
2023-05-09T18:28:12.562Z,10.07
2023-05-09T18:30:41.136Z,9.93
2023-05-09T18:33:10.762Z,9.93
2023-05-09T18:35:39.063Z,9.77
2023-05-09T18:38:07.351Z,8.88
2023-05-09T18:40:37.172Z,7.68
2023-05-09T18:43:06.120Z,7.80
2023-05-09T18:45:34.527Z,8.18
2023-05-09T18:48:03.083Z,6.85
2023-05-09T18:50:32.846Z,7.45
2023-05-09T18:53:01.279Z,6.50
2023-05-09T18:55:29.612Z,6.65
2023-05-09T18:57:57.894Z,6.72
2023-05-09T19:00:26.179Z,6.10
2023-05-09T19:02:54.492Z,6.35
2023-05-09T19:05:22.844Z,6.07
2023-05-09T19:07:54.098Z,5.90
2023-05-09T19:10:22.720Z,5.90
2023-05-09T19:12:51.058Z,5.78
2023-05-09T19:15:19.687Z,6.53
2023-05-09T19:17:48.089Z,5.43
2023-05-09T19:20:16.645Z,5.25
2023-05-09T19:22:48.184Z,5.05
2023-05-09T19:25:17.792Z,5.03
2023-05-09T19:27:46.090Z,4.75
2023-05-09T19:30:15.419Z,5.35
2023-05-09T19:32:43.976Z,5.30
2023-05-09T19:35:12.529Z,5.15
2023-05-09T19:37:40.848Z,5.07
2023-05-09T19:40:09.587Z,5.35
2023-05-09T19:42:39.278Z,5.60
2023-05-09T19:45:08.069Z,5.82
2023-05-09T19:47:36.355Z,6.00
2023-05-09T19:50:04.884Z,5.45
2023-05-09T19:52:33.144Z,4.57
2023-05-09T19:55:01.543Z,4.65
2023-05-09T19:57:30.191Z,4.95
2023-05-09T20:00:00.240Z,4.28
2023-05-09T20:02:28.604Z,4.60
2023-05-09T20:04:56.918Z,4.53
2023-05-09T20:07:25.291Z,3.88
2023-05-09T20:09:54.116Z,4.57
2023-05-09T20:12:22.560Z,4.47
2023-05-09T20:14:50.886Z,3.70
2023-05-09T20:17:20.721Z,3.85
2023-05-09T20:19:49.160Z,3.97
2023-05-09T20:22:17.466Z,4.38
2023-05-09T20:24:46.201Z,4.80
2023-05-09T20:27:14.491Z,4.00
2023-05-09T20:29:42.852Z,4.70
2023-05-09T20:32:11.933Z,3.92
2023-05-09T20:34:41.564Z,4.68
2023-05-09T20:37:09.879Z,4.70
2023-05-09T20:39:38.295Z,4.95
2023-05-09T20:42:08.039Z,4.45
2023-05-09T20:44:37.486Z,4.25
2023-05-09T20:47:05.835Z,4.90
2023-05-09T20:49:34.134Z,5.00
2023-05-09T20:52:03.747Z,4.70
2023-05-09T20:54:31.987Z,5.05
2023-05-09T20:57:00.295Z,5.38
2023-05-09T20:59:28.576Z,4.82
2023-05-09T21:01:57.395Z,4.88
2023-05-09T21:04:27.958Z,4.85
2023-05-09T21:06:59.345Z,5.07
2023-05-09T21:09:29.477Z,5.03
2023-05-09T21:11:57.929Z,5.15
2023-05-09T21:14:26.208Z,5.28
2023-05-09T21:16:57.898Z,4.70
2023-05-09T21:19:26.288Z,4.50
2023-05-09T21:21:55.810Z,4.30
2023-05-09T21:24:24.075Z,4.85
2023-05-09T21:26:53.722Z,4.68
2023-05-09T21:29:22.285Z,4.93
2023-05-09T21:31:50.682Z,5.05
2023-05-09T21:34:20.115Z,5.05
2023-05-09T21:36:48.392Z,4.75
2023-05-09T21:39:16.625Z,4.60
2023-05-09T21:41:45.239Z,5.00
2023-05-09T21:44:15.026Z,4.97
2023-05-09T21:46:46.034Z,4.60
2023-05-09T21:49:16.572Z,4.70
2023-05-09T21:51:44.880Z,4.95
2023-05-09T21:54:13.140Z,4.35
2023-05-09T21:56:42.446Z,4.60
2023-05-09T21:59:10.879Z,4.78
2023-05-09T22:01:40.579Z,4.70
2023-05-09T22:04:09.164Z,4.38
2023-05-09T22:06:37.670Z,4.82
2023-05-09T22:09:06.926Z,4.40
2023-05-09T22:11:35.210Z,4.57
2023-05-09T22:14:03.583Z,4.13
2023-05-09T22:16:31.914Z,4.50
2023-05-09T22:19:01.545Z,4.68
2023-05-09T22:21:29.855Z,4.75
2023-05-09T22:23:58.619Z,4.15
2023-05-09T22:26:27.002Z,3.95
2023-05-09T22:28:56.519Z,4.20
2023-05-09T22:31:24.830Z,4.30
2023-05-09T22:33:53.138Z,4.28
2023-05-09T22:36:22.757Z,4.75
2023-05-09T22:38:51.311Z,4.18
2023-05-09T22:41:19.566Z,4.75
2023-05-09T22:43:47.917Z,4.28
2023-05-09T22:46:16.219Z,4.70
2023-05-09T22:48:44.467Z,5.03
2023-05-09T22:51:14.196Z,5.45
2023-05-09T22:53:43.824Z,5.22
2023-05-09T22:56:12.677Z,5.00
2023-05-09T22:58:41.006Z,4.97
2023-05-09T23:01:09.370Z,5.28
2023-05-09T23:03:38.036Z,5.32
2023-05-09T23:06:06.488Z,4.20
2023-05-09T23:08:35.040Z,4.93
2023-05-09T23:11:04.782Z,5.00
2023-05-09T23:13:33.188Z,4.47
2023-05-09T23:16:01.713Z,4.00
2023-05-09T23:18:30.149Z,4.78
2023-05-09T23:20:58.437Z,4.70
2023-05-09T23:23:26.686Z,5.22
2023-05-09T23:25:54.993Z,4.78
2023-05-09T23:28:25.272Z,4.50
2023-05-09T23:30:53.827Z,3.97
2023-05-09T23:33:22.164Z,4.25
2023-05-09T23:35:50.481Z,4.28
2023-05-09T23:38:18.782Z,4.40
2023-05-09T23:40:47.114Z,3.90
2023-05-09T23:43:15.511Z,3.95
2023-05-09T23:45:45.422Z,3.25
2023-05-09T23:48:13.796Z,2.50
2023-05-09T23:50:42.073Z,1.48
2023-05-09T23:53:10.433Z,1.60
2023-05-09T23:55:38.767Z,1.73
2023-05-09T23:58:07.062Z,1.52
